sensor_id;sensor_type;location;lat;lon;timestamp;P1;durP1;ratioP1;P2;durP2;ratioP2
38457;SDS011;24239;48.058;10.486;2024-03-23T00:53:40;6.20;;;3.00;;
38457;SDS011;24239;48.058;10.486;2024-03-23T00:56:26;5.05;;;3.08;;
38457;SDS011;24239;48.058;10.486;2024-03-23T00:59:12;4.38;;;2.95;;
38457;SDS011;24239;48.058;10.486;2024-03-23T01:01:59;3.10;;;2.60;;
38457;SDS011;24239;48.058;10.486;2024-03-23T01:04:44;4.55;;;2.97;;
38457;SDS011;24239;48.058;10.486;2024-03-23T01:07:31;3.88;;;2.88;;
38457;SDS011;24239;48.058;10.486;2024-03-23T01:10:17;3.40;;;2.97;;
38457;SDS011;24239;48.058;10.486;2024-03-23T01:13:03;10.05;;;3.10;;
38457;SDS011;24239;48.058;10.486;2024-03-23T01:15:49;3.45;;;2.70;;
38457;SDS011;24239;48.058;10.486;2024-03-23T01:18:36;7.13;;;2.72;;
38457;SDS011;24239;48.058;10.486;2024-03-23T01:21:23;5.97;;;2.90;;
38457;SDS011;24239;48.058;10.486;2024-03-23T01:24:09;4.32;;;2.67;;
38457;SDS011;24239;48.058;10.486;2024-03-23T01:26:56;4.28;;;3.17;;
38457;SDS011;24239;48.058;10.486;2024-03-23T01:29:41;6.28;;;3.30;;
38457;SDS011;24239;48.058;10.486;2024-03-23T01:32:27;5.20;;;2.78;;
38457;SDS011;24239;48.058;10.486;2024-03-23T01:35:13;4.40;;;3.00;;
38457;SDS011;24239;48.058;10.486;2024-03-23T01:37:59;5.70;;;2.85;;
38457;SDS011;24239;48.058;10.486;2024-03-23T01:40:45;4.13;;;2.63;;
38457;SDS011;24239;48.058;10.486;2024-03-23T01:43:31;6.47;;;3.20;;
38457;SDS011;24239;48.058;10.486;2024-03-23T01:46:17;4.45;;;2.78;;
38457;SDS011;24239;48.058;10.486;2024-03-23T01:49:04;5.60;;;3.15;;
38457;SDS011;24239;48.058;10.486;2024-03-23T01:51:50;5.03;;;3.17;;
38457;SDS011;24239;48.058;10.486;2024-03-23T01:54:35;4.93;;;3.30;;
38457;SDS011;24239;48.058;10.486;2024-03-23T01:57:22;4.22;;;2.90;;
38457;SDS011;24239;48.058;10.486;2024-03-23T02:00:08;5.57;;;3.15;;
38457;SDS011;24239;48.058;10.486;2024-03-23T02:02:57;5.20;;;3.22;;
38457;SDS011;24239;48.058;10.486;2024-03-23T02:05:43;3.67;;;2.65;;
38457;SDS011;24239;48.058;10.486;2024-03-23T02:08:28;6.93;;;3.50;;
38457;SDS011;24239;48.058;10.486;2024-03-23T02:11:15;4.15;;;3.40;;
38457;SDS011;24239;48.058;10.486;2024-03-23T02:14:01;5.45;;;3.38;;
38457;SDS011;24239;48.058;10.486;2024-03-23T02:16:47;6.88;;;3.28;;
38457;SDS011;24239;48.058;10.486;2024-03-23T02:19:33;4.22;;;3.45;;
38457;SDS011;24239;48.058;10.486;2024-03-23T02:22:19;4.43;;;2.80;;
38457;SDS011;24239;48.058;10.486;2024-03-23T02:25:05;3.33;;;3.03;;
38457;SDS011;24239;48.058;10.486;2024-03-23T02:27:51;4.80;;;3.20;;
38457;SDS011;24239;48.058;10.486;2024-03-23T02:30:39;6.53;;;2.90;;
38457;SDS011;24239;48.058;10.486;2024-03-23T02:33:25;3.25;;;2.95;;
38457;SDS011;24239;48.058;10.486;2024-03-23T02:36:11;4.78;;;3.08;;
38457;SDS011;24239;48.058;10.486;2024-03-23T02:38:57;4.07;;;2.90;;
38457;SDS011;24239;48.058;10.486;2024-03-23T02:41:42;4.97;;;3.03;;
38457;SDS011;24239;48.058;10.486;2024-03-23T02:44:28;5.53;;;2.92;;
38457;SDS011;24239;48.058;10.486;2024-03-23T02:47:14;3.30;;;2.80;;
38457;SDS011;24239;48.058;10.486;2024-03-23T02:49:59;4.57;;;2.97;;
38457;SDS011;24239;48.058;10.486;2024-03-23T02:52:45;4.50;;;2.95;;
38457;SDS011;24239;48.058;10.486;2024-03-23T02:55:31;5.55;;;2.88;;
38457;SDS011;24239;48.058;10.486;2024-03-23T02:58:17;6.70;;;2.80;;
38457;SDS011;24239;48.058;10.486;2024-03-23T03:01:03;3.50;;;3.00;;
38457;SDS011;24239;48.058;10.486;2024-03-23T03:03:49;3.17;;;2.63;;
38457;SDS011;24239;48.058;10.486;2024-03-23T03:06:34;4.28;;;3.88;;
38457;SDS011;24239;48.058;10.486;2024-03-23T03:09:20;5.50;;;2.60;;
38457;SDS011;24239;48.058;10.486;2024-03-23T03:12:06;4.03;;;2.50;;
38457;SDS011;24239;48.058;10.486;2024-03-23T03:14:52;4.65;;;2.70;;
38457;SDS011;24239;48.058;10.486;2024-03-23T03:17:38;4.53;;;2.55;;
38457;SDS011;24239;48.058;10.486;2024-03-23T03:20:23;2.83;;;2.42;;
38457;SDS011;24239;48.058;10.486;2024-03-23T03:23:09;3.10;;;2.50;;
38457;SDS011;24239;48.058;10.486;2024-03-23T03:25:55;4.15;;;2.30;;
38457;SDS011;24239;48.058;10.486;2024-03-23T03:28:41;7.60;;;2.67;;
38457;SDS011;24239;48.058;10.486;2024-03-23T03:31:26;6.93;;;2.83;;
38457;SDS011;24239;48.058;10.486;2024-03-23T03:34:12;3.55;;;2.40;;
38457;SDS011;24239;48.058;10.486;2024-03-23T03:36:58;2.90;;;2.35;;
38457;SDS011;24239;48.058;10.486;2024-03-23T03:39:44;3.53;;;2.40;;
38457;SDS011;24239;48.058;10.486;2024-03-23T03:42:30;5.20;;;2.50;;
38457;SDS011;24239;48.058;10.486;2024-03-23T03:45:15;4.18;;;2.53;;
38457;SDS011;24239;48.058;10.486;2024-03-23T03:48:01;2.35;;;2.15;;
38457;SDS011;24239;48.058;10.486;2024-03-23T03:50:47;3.13;;;2.20;;
38457;SDS011;24239;48.058;10.486;2024-03-23T03:53:32;2.80;;;2.50;;
38457;SDS011;24239;48.058;10.486;2024-03-23T03:56:18;3.47;;;2.05;;
38457;SDS011;24239;48.058;10.486;2024-03-23T03:59:04;4.13;;;2.35;;
38457;SDS011;24239;48.058;10.486;2024-03-23T04:01:50;6.93;;;2.22;;
38457;SDS011;24239;48.058;10.486;2024-03-23T04:04:36;2.47;;;2.20;;
38457;SDS011;24239;48.058;10.486;2024-03-23T04:07:22;6.15;;;2.15;;
38457;SDS011;24239;48.058;10.486;2024-03-23T04:10:08;3.38;;;2.22;;
38457;SDS011;24239;48.058;10.486;2024-03-23T04:12:54;5.57;;;2.10;;
38457;SDS011;24239;48.058;10.486;2024-03-23T04:15:40;2.42;;;2.00;;
38457;SDS011;24239;48.058;10.486;2024-03-23T04:18:26;5.93;;;2.25;;
38457;SDS011;24239;48.058;10.486;2024-03-23T04:21:11;3.42;;;2.05;;
38457;SDS011;24239;48.058;10.486;2024-03-23T04:23:57;7.15;;;3.13;;
38457;SDS011;24239;48.058;10.486;2024-03-23T04:26:43;2.50;;;2.20;;
38457;SDS011;24239;48.058;10.486;2024-03-23T04:29:28;3.45;;;2.15;;
38457;SDS011;24239;48.058;10.486;2024-03-23T04:32:14;4.38;;;1.88;;
38457;SDS011;24239;48.058;10.486;2024-03-23T04:35:00;4.85;;;2.10;;
38457;SDS011;24239;48.058;10.486;2024-03-23T04:37:46;5.40;;;2.10;;
38457;SDS011;24239;48.058;10.486;2024-03-23T04:40:31;6.05;;;2.20;;
38457;SDS011;24239;48.058;10.486;2024-03-23T04:43:17;2.80;;;2.20;;
38457;SDS011;24239;48.058;10.486;2024-03-23T04:46:03;4.22;;;2.38;;
38457;SDS011;24239;48.058;10.486;2024-03-23T04:48:49;2.33;;;1.95;;
38457;SDS011;24239;48.058;10.486;2024-03-23T04:51:35;4.95;;;2.28;;
38457;SDS011;24239;48.058;10.486;2024-03-23T04:54:22;3.17;;;2.00;;
38457;SDS011;24239;48.058;10.486;2024-03-23T04:57:07;4.03;;;2.10;;
38457;SDS011;24239;48.058;10.486;2024-03-23T04:59:53;3.65;;;1.95;;
38457;SDS011;24239;48.058;10.486;2024-03-23T05:02:39;3.55;;;2.05;;
38457;SDS011;24239;48.058;10.486;2024-03-23T05:05:24;3.92;;;2.30;;
38457;SDS011;24239;48.058;10.486;2024-03-23T05:08:10;5.03;;;2.30;;
38457;SDS011;24239;48.058;10.486;2024-03-23T05:10:56;2.70;;;2.28;;
38457;SDS011;24239;48.058;10.486;2024-03-23T05:13:42;3.00;;;2.20;;
38457;SDS011;24239;48.058;10.486;2024-03-23T05:16:27;2.53;;;2.00;;
38457;SDS011;24239;48.058;10.486;2024-03-23T05:19:13;2.30;;;2.05;;
38457;SDS011;24239;48.058;10.486;2024-03-23T05:21:59;3.60;;;2.22;;
38457;SDS011;24239;48.058;10.486;2024-03-23T05:24:45;3.97;;;2.10;;
38457;SDS011;24239;48.058;10.486;2024-03-23T05:27:32;4.28;;;2.10;;
38457;SDS011;24239;48.058;10.486;2024-03-23T05:30:18;4.68;;;1.90;;
38457;SDS011;24239;48.058;10.486;2024-03-23T05:33:04;1.95;;;1.80;;
38457;SDS011;24239;48.058;10.486;2024-03-23T05:35:57;2.83;;;1.92;;
38457;SDS011;24239;48.058;10.486;2024-03-23T05:38:43;2.47;;;2.03;;
38457;SDS011;24239;48.058;10.486;2024-03-23T05:41:29;4.97;;;2.10;;
38457;SDS011;24239;48.058;10.486;2024-03-23T05:44:15;4.75;;;2.50;;
38457;SDS011;24239;48.058;10.486;2024-03-23T05:47:00;3.40;;;2.03;;
38457;SDS011;24239;48.058;10.486;2024-03-23T05:49:46;4.00;;;2.17;;
38457;SDS011;24239;48.058;10.486;2024-03-23T05:52:32;3.95;;;1.95;;
38457;SDS011;24239;48.058;10.486;2024-03-23T05:55:18;4.53;;;2.20;;
38457;SDS011;24239;48.058;10.486;2024-03-23T05:58:03;2.72;;;2.28;;
38457;SDS011;24239;48.058;10.486;2024-03-23T06:00:49;3.25;;;2.28;;
38457;SDS011;24239;48.058;10.486;2024-03-23T06:03:42;2.83;;;2.00;;
38457;SDS011;24239;48.058;10.486;2024-03-23T06:06:29;2.30;;;2.10;;
38457;SDS011;24239;48.058;10.486;2024-03-23T06:09:15;2.72;;;1.98;;
38457;SDS011;24239;48.058;10.486;2024-03-23T06:12:01;2.40;;;1.85;;
38457;SDS011;24239;48.058;10.486;2024-03-23T06:14:47;2.33;;;2.13;;
38457;SDS011;24239;48.058;10.486;2024-03-23T06:17:35;4.35;;;2.00;;
38457;SDS011;24239;48.058;10.486;2024-03-23T06:20:20;4.45;;;2.08;;
38457;SDS011;24239;48.058;10.486;2024-03-23T06:23:06;4.55;;;2.20;;
38457;SDS011;24239;48.058;10.486;2024-03-23T06:25:52;5.32;;;2.50;;
38457;SDS011;24239;48.058;10.486;2024-03-23T06:28:38;4.22;;;2.28;;
38457;SDS011;24239;48.058;10.486;2024-03-23T06:31:24;3.28;;;2.30;;
38457;SDS011;24239;48.058;10.486;2024-03-23T06:34:09;4.55;;;2.30;;
38457;SDS011;24239;48.058;10.486;2024-03-23T06:36:55;4.93;;;2.08;;
38457;SDS011;24239;48.058;10.486;2024-03-23T06:39:41;3.85;;;2.70;;
38457;SDS011;24239;48.058;10.486;2024-03-23T06:42:26;2.95;;;2.30;;
38457;SDS011;24239;48.058;10.486;2024-03-23T06:45:12;2.90;;;2.40;;
38457;SDS011;24239;48.058;10.486;2024-03-23T06:47:58;3.70;;;2.10;;
38457;SDS011;24239;48.058;10.486;2024-03-23T06:50:43;5.57;;;2.00;;
38457;SDS011;24239;48.058;10.486;2024-03-23T06:53:29;4.93;;;2.30;;
38457;SDS011;24239;48.058;10.486;2024-03-23T06:56:15;3.53;;;2.30;;
38457;SDS011;24239;48.058;10.486;2024-03-23T06:59:01;3.70;;;2.63;;
38457;SDS011;24239;48.058;10.486;2024-03-23T07:01:46;6.43;;;2.53;;
38457;SDS011;24239;48.058;10.486;2024-03-23T07:04:32;5.07;;;2.75;;
38457;SDS011;24239;48.058;10.486;2024-03-23T07:07:18;4.53;;;2.83;;
38457;SDS011;24239;48.058;10.486;2024-03-23T07:10:03;3.30;;;2.65;;
38457;SDS011;24239;48.058;10.486;2024-03-23T07:12:50;3.50;;;2.78;;
38457;SDS011;24239;48.058;10.486;2024-03-23T07:15:36;5.38;;;2.83;;
38457;SDS011;24239;48.058;10.486;2024-03-23T07:18:21;5.90;;;3.42;;
38457;SDS011;24239;48.058;10.486;2024-03-23T07:21:10;5.43;;;3.28;;
38457;SDS011;24239;48.058;10.486;2024-03-23T07:23:56;5.90;;;3.17;;
38457;SDS011;24239;48.058;10.486;2024-03-23T07:26:42;5.15;;;3.97;;
38457;SDS011;24239;48.058;10.486;2024-03-23T07:29:27;5.05;;;3.60;;
38457;SDS011;24239;48.058;10.486;2024-03-23T07:32:13;7.00;;;3.95;;
38457;SDS011;24239;48.058;10.486;2024-03-23T07:34:59;6.28;;;3.70;;
38457;SDS011;24239;48.058;10.486;2024-03-23T07:37:45;6.70;;;3.83;;
38457;SDS011;24239;48.058;10.486;2024-03-23T07:40:30;9.13;;;5.30;;
38457;SDS011;24239;48.058;10.486;2024-03-23T07:43:16;7.10;;;4.90;;
38457;SDS011;24239;48.058;10.486;2024-03-23T07:46:02;5.95;;;3.78;;
38457;SDS011;24239;48.058;10.486;2024-03-23T07:48:49;5.20;;;4.10;;
38457;SDS011;24239;48.058;10.486;2024-03-23T07:51:35;4.22;;;3.38;;
38457;SDS011;24239;48.058;10.486;2024-03-23T07:54:21;6.03;;;2.80;;
38457;SDS011;24239;48.058;10.486;2024-03-23T07:57:06;4.18;;;3.28;;
38457;SDS011;24239;48.058;10.486;2024-03-23T07:59:52;4.38;;;3.38;;
38457;SDS011;24239;48.058;10.486;2024-03-23T08:02:38;4.65;;;3.15;;
38457;SDS011;24239;48.058;10.486;2024-03-23T08:05:25;7.00;;;3.92;;
38457;SDS011;24239;48.058;10.486;2024-03-23T08:08:11;5.95;;;4.10;;
38457;SDS011;24239;48.058;10.486;2024-03-23T08:10:57;6.90;;;4.00;;
38457;SDS011;24239;48.058;10.486;2024-03-23T08:13:44;9.32;;;3.90;;
38457;SDS011;24239;48.058;10.486;2024-03-23T08:16:30;5.93;;;4.30;;
38457;SDS011;24239;48.058;10.486;2024-03-23T08:19:16;5.60;;;4.50;;
38457;SDS011;24239;48.058;10.486;2024-03-23T08:22:02;7.25;;;4.40;;
38457;SDS011;24239;48.058;10.486;2024-03-23T08:24:48;7.30;;;4.50;;
38457;SDS011;24239;48.058;10.486;2024-03-23T08:27:34;6.63;;;4.70;;
38457;SDS011;24239;48.058;10.486;2024-03-23T08:30:20;5.25;;;3.92;;
38457;SDS011;24239;48.058;10.486;2024-03-23T08:33:06;7.25;;;4.22;;
38457;SDS011;24239;48.058;10.486;2024-03-23T08:35:55;7.03;;;4.70;;
38457;SDS011;24239;48.058;10.486;2024-03-23T08:38:41;7.07;;;4.68;;
38457;SDS011;24239;48.058;10.486;2024-03-23T08:41:27;7.82;;;4.60;;
38457;SDS011;24239;48.058;10.486;2024-03-23T08:44:12;7.22;;;4.75;;
38457;SDS011;24239;48.058;10.486;2024-03-23T08:46:58;8.52;;;4.43;;
38457;SDS011;24239;48.058;10.486;2024-03-23T08:49:44;4.68;;;4.05;;
38457;SDS011;24239;48.058;10.486;2024-03-23T08:52:30;3.30;;;2.70;;
38457;SDS011;24239;48.058;10.486;2024-03-23T08:55:15;3.88;;;2.60;;
38457;SDS011;24239;48.058;10.486;2024-03-23T08:58:01;2.60;;;2.38;;
38457;SDS011;24239;48.058;10.486;2024-03-23T09:00:47;2.72;;;2.30;;
38457;SDS011;24239;48.058;10.486;2024-03-23T09:03:34;2.78;;;2.20;;
38457;SDS011;24239;48.058;10.486;2024-03-23T09:06:20;3.22;;;2.38;;
38457;SDS011;24239;48.058;10.486;2024-03-23T09:09:06;4.28;;;2.47;;
38457;SDS011;24239;48.058;10.486;2024-03-23T09:11:52;4.28;;;2.70;;
38457;SDS011;24239;48.058;10.486;2024-03-23T09:14:37;3.92;;;2.35;;
38457;SDS011;24239;48.058;10.486;2024-03-23T09:17:23;3.30;;;2.35;;
38457;SDS011;24239;48.058;10.486;2024-03-23T09:20:09;2.97;;;2.28;;
38457;SDS011;24239;48.058;10.486;2024-03-23T09:22:55;4.22;;;2.70;;
38457;SDS011;24239;48.058;10.486;2024-03-23T09:25:41;2.60;;;2.38;;
38457;SDS011;24239;48.058;10.486;2024-03-23T09:28:26;2.65;;;2.28;;
38457;SDS011;24239;48.058;10.486;2024-03-23T09:31:12;3.33;;;2.15;;
38457;SDS011;24239;48.058;10.486;2024-03-23T09:34:00;2.75;;;2.40;;
38457;SDS011;24239;48.058;10.486;2024-03-23T09:36:46;3.58;;;2.50;;
38457;SDS011;24239;48.058;10.486;2024-03-23T09:39:33;2.90;;;2.35;;
38457;SDS011;24239;48.058;10.486;2024-03-23T09:42:18;2.78;;;2.35;;
38457;SDS011;24239;48.058;10.486;2024-03-23T09:45:11;2.42;;;2.05;;
38457;SDS011;24239;48.058;10.486;2024-03-23T09:48:20;2.70;;;2.20;;
38457;SDS011;24239;48.058;10.486;2024-03-23T09:51:06;2.83;;;1.90;;
38457;SDS011;24239;48.058;10.486;2024-03-23T09:53:54;1.92;;;1.80;;
38457;SDS011;24239;48.058;10.486;2024-03-23T09:56:40;1.92;;;1.80;;
38457;SDS011;24239;48.058;10.486;2024-03-23T09:59:25;1.67;;;1.58;;
38457;SDS011;24239;48.058;10.486;2024-03-23T10:02:12;1.52;;;1.42;;
38457;SDS011;24239;48.058;10.486;2024-03-23T10:05:02;1.88;;;1.77;;
38457;SDS011;24239;48.058;10.486;2024-03-23T10:07:51;1.95;;;1.70;;
38457;SDS011;24239;48.058;10.486;2024-03-23T10:10:37;1.95;;;1.80;;
38457;SDS011;24239;48.058;10.486;2024-03-23T10:13:26;3.13;;;2.00;;
38457;SDS011;24239;48.058;10.486;2024-03-23T10:16:21;2.25;;;2.03;;
38457;SDS011;24239;48.058;10.486;2024-03-23T10:19:08;2.35;;;2.15;;
38457;SDS011;24239;48.058;10.486;2024-03-23T10:21:55;3.38;;;2.20;;
38457;SDS011;24239;48.058;10.486;2024-03-23T10:24:41;3.35;;;2.20;;
38457;SDS011;24239;48.058;10.486;2024-03-23T10:27:28;3.05;;;2.25;;
38457;SDS011;24239;48.058;10.486;2024-03-23T10:30:13;6.65;;;2.17;;
38457;SDS011;24239;48.058;10.486;2024-03-23T10:33:09;3.30;;;2.33;;
38457;SDS011;24239;48.058;10.486;2024-03-23T10:35:55;4.05;;;2.40;;
38457;SDS011;24239;48.058;10.486;2024-03-23T10:38:42;3.20;;;2.60;;
38457;SDS011;24239;48.058;10.486;2024-03-23T10:41:29;2.28;;;2.08;;
38457;SDS011;24239;48.058;10.486;2024-03-23T10:44:17;4.60;;;2.33;;
38457;SDS011;24239;48.058;10.486;2024-03-23T10:47:05;2.95;;;2.08;;
38457;SDS011;24239;48.058;10.486;2024-03-23T10:49:50;3.13;;;2.25;;
38457;SDS011;24239;48.058;10.486;2024-03-23T10:52:36;3.20;;;2.00;;
38457;SDS011;24239;48.058;10.486;2024-03-23T10:55:23;4.18;;;2.20;;
38457;SDS011;24239;48.058;10.486;2024-03-23T10:58:09;2.80;;;2.13;;
38457;SDS011;24239;48.058;10.486;2024-03-23T11:00:57;2.97;;;2.25;;
38457;SDS011;24239;48.058;10.486;2024-03-23T11:03:46;2.95;;;2.13;;
38457;SDS011;24239;48.058;10.486;2024-03-23T11:09:43;4.85;;;2.40;;
38457;SDS011;24239;48.058;10.486;2024-03-23T11:12:30;5.55;;;2.70;;
38457;SDS011;24239;48.058;10.486;2024-03-23T11:15:19;4.28;;;2.45;;
38457;SDS011;24239;48.058;10.486;2024-03-23T11:18:05;3.53;;;2.25;;
38457;SDS011;24239;48.058;10.486;2024-03-23T11:20:54;3.67;;;2.88;;
38457;SDS011;24239;48.058;10.486;2024-03-23T11:23:39;4.40;;;2.25;;
38457;SDS011;24239;48.058;10.486;2024-03-23T11:26:25;3.28;;;2.33;;
38457;SDS011;24239;48.058;10.486;2024-03-23T11:29:11;4.20;;;2.10;;
38457;SDS011;24239;48.058;10.486;2024-03-23T11:31:58;3.35;;;2.40;;
38457;SDS011;24239;48.058;10.486;2024-03-23T11:34:44;3.13;;;2.55;;
38457;SDS011;24239;48.058;10.486;2024-03-23T11:37:30;3.20;;;2.72;;
38457;SDS011;24239;48.058;10.486;2024-03-23T11:40:18;3.88;;;2.42;;
38457;SDS011;24239;48.058;10.486;2024-03-23T11:43:05;3.72;;;2.55;;
38457;SDS011;24239;48.058;10.486;2024-03-23T11:45:52;2.80;;;2.30;;
38457;SDS011;24239;48.058;10.486;2024-03-23T11:48:38;8.10;;;2.47;;
38457;SDS011;24239;48.058;10.486;2024-03-23T11:51:24;5.90;;;3.00;;
38457;SDS011;24239;48.058;10.486;2024-03-23T11:54:10;5.15;;;2.47;;
38457;SDS011;24239;48.058;10.486;2024-03-23T11:59:44;4.45;;;2.40;;
38457;SDS011;24239;48.058;10.486;2024-03-23T12:02:30;7.70;;;2.63;;
38457;SDS011;24239;48.058;10.486;2024-03-23T12:05:16;6.40;;;2.50;;
38457;SDS011;24239;48.058;10.486;2024-03-23T12:08:15;7.25;;;2.22;;
38457;SDS011;24239;48.058;10.486;2024-03-23T12:13:51;7.68;;;2.60;;
38457;SDS011;24239;48.058;10.486;2024-03-23T12:16:37;4.30;;;2.72;;
38457;SDS011;24239;48.058;10.486;2024-03-23T12:19:23;4.38;;;2.35;;
38457;SDS011;24239;48.058;10.486;2024-03-23T12:22:08;4.68;;;2.88;;
38457;SDS011;24239;48.058;10.486;2024-03-23T12:24:54;5.05;;;2.40;;
38457;SDS011;24239;48.058;10.486;2024-03-23T12:27:40;5.40;;;2.53;;
38457;SDS011;24239;48.058;10.486;2024-03-23T12:30:26;6.00;;;2.40;;
38457;SDS011;24239;48.058;10.486;2024-03-23T12:33:11;6.75;;;2.63;;
38457;SDS011;24239;48.058;10.486;2024-03-23T12:35:57;6.22;;;2.53;;
38457;SDS011;24239;48.058;10.486;2024-03-23T12:38:43;6.35;;;2.42;;
38457;SDS011;24239;48.058;10.486;2024-03-23T12:41:30;5.75;;;2.40;;
38457;SDS011;24239;48.058;10.486;2024-03-23T12:44:15;4.68;;;2.10;;
38457;SDS011;24239;48.058;10.486;2024-03-23T12:47:01;6.30;;;2.55;;
38457;SDS011;24239;48.058;10.486;2024-03-23T12:49:47;2.92;;;2.20;;
38457;SDS011;24239;48.058;10.486;2024-03-23T12:52:35;3.22;;;2.28;;
38457;SDS011;24239;48.058;10.486;2024-03-23T12:55:21;6.85;;;3.72;;
38457;SDS011;24239;48.058;10.486;2024-03-23T12:58:07;6.95;;;2.67;;
38457;SDS011;24239;48.058;10.486;2024-03-23T13:00:52;3.60;;;2.40;;
38457;SDS011;24239;48.058;10.486;2024-03-23T13:03:38;4.35;;;2.53;;
38457;SDS011;24239;48.058;10.486;2024-03-23T13:06:26;6.00;;;2.72;;
38457;SDS011;24239;48.058;10.486;2024-03-23T13:09:12;5.47;;;2.78;;
38457;SDS011;24239;48.058;10.486;2024-03-23T13:11:58;6.07;;;3.10;;
38457;SDS011;24239;48.058;10.486;2024-03-23T13:14:44;4.53;;;2.58;;
38457;SDS011;24239;48.058;10.486;2024-03-23T13:17:30;7.97;;;2.78;;
38457;SDS011;24239;48.058;10.486;2024-03-23T13:20:16;6.70;;;2.20;;
38457;SDS011;24239;48.058;10.486;2024-03-23T13:23:02;8.48;;;3.20;;
38457;SDS011;24239;48.058;10.486;2024-03-23T13:25:51;9.60;;;3.13;;
38457;SDS011;24239;48.058;10.486;2024-03-23T13:31:26;6.22;;;3.00;;
38457;SDS011;24239;48.058;10.486;2024-03-23T13:34:12;7.25;;;3.47;;
38457;SDS011;24239;48.058;10.486;2024-03-23T13:37:00;13.52;;;3.85;;
38457;SDS011;24239;48.058;10.486;2024-03-23T13:39:46;7.88;;;3.58;;
38457;SDS011;24239;48.058;10.486;2024-03-23T13:42:32;7.20;;;3.25;;
38457;SDS011;24239;48.058;10.486;2024-03-23T13:45:17;8.02;;;3.50;;
38457;SDS011;24239;48.058;10.486;2024-03-23T13:48:03;7.38;;;3.38;;
38457;SDS011;24239;48.058;10.486;2024-03-23T13:50:59;6.72;;;3.15;;
38457;SDS011;24239;48.058;10.486;2024-03-23T13:53:48;6.85;;;3.15;;
38457;SDS011;24239;48.058;10.486;2024-03-23T13:56:34;4.45;;;2.80;;
38457;SDS011;24239;48.058;10.486;2024-03-23T13:59:19;5.38;;;2.67;;
38457;SDS011;24239;48.058;10.486;2024-03-23T14:02:06;6.55;;;2.88;;
38457;SDS011;24239;48.058;10.486;2024-03-23T14:04:52;3.10;;;2.80;;
38457;SDS011;24239;48.058;10.486;2024-03-23T14:07:38;2.30;;;2.10;;
38457;SDS011;24239;48.058;10.486;2024-03-23T14:10:24;2.00;;;1.80;;
38457;SDS011;24239;48.058;10.486;2024-03-23T14:13:10;4.18;;;2.83;;
38457;SDS011;24239;48.058;10.486;2024-03-23T14:15:55;2.33;;;1.95;;
38457;SDS011;24239;48.058;10.486;2024-03-23T14:18:41;4.60;;;2.65;;
38457;SDS011;24239;48.058;10.486;2024-03-23T14:21:27;3.78;;;2.15;;
38457;SDS011;24239;48.058;10.486;2024-03-23T14:24:13;1.88;;;1.63;;
38457;SDS011;24239;48.058;10.486;2024-03-23T14:26:58;2.25;;;2.13;;
38457;SDS011;24239;48.058;10.486;2024-03-23T14:29:51;2.78;;;2.22;;
38457;SDS011;24239;48.058;10.486;2024-03-23T14:32:44;3.75;;;2.25;;
38457;SDS011;24239;48.058;10.486;2024-03-23T14:43:27;2.45;;;2.00;;
38457;SDS011;24239;48.058;10.486;2024-03-23T14:46:14;4.32;;;2.60;;
38457;SDS011;24239;48.058;10.486;2024-03-23T14:49:01;4.45;;;2.17;;
38457;SDS011;24239;48.058;10.486;2024-03-23T14:51:47;4.18;;;2.45;;
38457;SDS011;24239;48.058;10.486;2024-03-23T14:54:33;9.05;;;2.10;;
38457;SDS011;24239;48.058;10.486;2024-03-23T14:57:22;5.18;;;2.13;;
38457;SDS011;24239;48.058;10.486;2024-03-23T15:06:20;3.45;;;2.10;;
38457;SDS011;24239;48.058;10.486;2024-03-23T15:09:06;2.72;;;1.92;;
38457;SDS011;24239;48.058;10.486;2024-03-23T15:11:56;6.03;;;2.75;;
38457;SDS011;24239;48.058;10.486;2024-03-23T15:14:42;5.03;;;2.20;;
38457;SDS011;24239;48.058;10.486;2024-03-23T15:17:29;6.13;;;2.17;;
38457;SDS011;24239;48.058;10.486;2024-03-23T15:20:20;2.53;;;1.70;;
38457;SDS011;24239;48.058;10.486;2024-03-23T15:23:08;5.22;;;1.98;;
38457;SDS011;24239;48.058;10.486;2024-03-23T15:25:57;2.53;;;2.05;;
38457;SDS011;24239;48.058;10.486;2024-03-23T15:28:49;3.08;;;2.10;;
38457;SDS011;24239;48.058;10.486;2024-03-23T15:31:44;2.47;;;1.70;;
38457;SDS011;24239;48.058;10.486;2024-03-23T15:34:31;4.97;;;2.00;;
38457;SDS011;24239;48.058;10.486;2024-03-23T15:37:17;3.78;;;1.77;;
38457;SDS011;24239;48.058;10.486;2024-03-23T15:40:03;5.55;;;2.17;;
38457;SDS011;24239;48.058;10.486;2024-03-23T15:42:49;3.88;;;2.25;;
38457;SDS011;24239;48.058;10.486;2024-03-23T15:45:35;4.50;;;1.88;;
38457;SDS011;24239;48.058;10.486;2024-03-23T15:48:21;3.72;;;1.70;;
38457;SDS011;24239;48.058;10.486;2024-03-23T15:51:07;5.72;;;1.73;;
38457;SDS011;24239;48.058;10.486;2024-03-23T15:53:53;6.15;;;2.20;;
38457;SDS011;24239;48.058;10.486;2024-03-23T15:56:42;5.85;;;1.80;;
38457;SDS011;24239;48.058;10.486;2024-03-23T15:59:28;3.22;;;1.92;;
38457;SDS011;24239;48.058;10.486;2024-03-23T16:02:15;4.97;;;2.53;;
38457;SDS011;24239;48.058;10.486;2024-03-23T16:05:01;5.70;;;2.13;;
38457;SDS011;24239;48.058;10.486;2024-03-23T16:07:49;3.97;;;2.38;;
38457;SDS011;24239;48.058;10.486;2024-03-23T16:10:34;6.50;;;3.75;;
38457;SDS011;24239;48.058;10.486;2024-03-23T16:13:20;4.35;;;3.88;;
38457;SDS011;24239;48.058;10.486;2024-03-23T16:16:06;4.65;;;2.50;;
38457;SDS011;24239;48.058;10.486;2024-03-23T16:18:52;3.28;;;2.25;;
38457;SDS011;24239;48.058;10.486;2024-03-23T16:21:38;3.55;;;1.95;;
38457;SDS011;24239;48.058;10.486;2024-03-23T16:24:24;4.22;;;1.92;;
38457;SDS011;24239;48.058;10.486;2024-03-23T16:27:09;3.33;;;1.90;;
38457;SDS011;24239;48.058;10.486;2024-03-23T16:29:55;5.47;;;2.10;;
38457;SDS011;24239;48.058;10.486;2024-03-23T16:32:41;4.18;;;2.08;;
38457;SDS011;24239;48.058;10.486;2024-03-23T16:35:27;4.82;;;1.88;;
38457;SDS011;24239;48.058;10.486;2024-03-23T16:38:13;7.07;;;2.20;;
38457;SDS011;24239;48.058;10.486;2024-03-23T16:40:59;2.55;;;1.80;;
38457;SDS011;24239;48.058;10.486;2024-03-23T16:43:45;5.35;;;1.67;;
38457;SDS011;24239;48.058;10.486;2024-03-23T16:46:31;2.45;;;1.90;;
38457;SDS011;24239;48.058;10.486;2024-03-23T16:49:17;2.33;;;1.90;;
38457;SDS011;24239;48.058;10.486;2024-03-23T16:52:03;2.10;;;1.90;;
38457;SDS011;24239;48.058;10.486;2024-03-23T16:54:49;4.82;;;1.60;;
38457;SDS011;24239;48.058;10.486;2024-03-23T16:57:36;4.20;;;1.67;;
38457;SDS011;24239;48.058;10.486;2024-03-23T17:00:21;2.67;;;1.63;;
38457;SDS011;24239;48.058;10.486;2024-03-23T17:03:07;3.35;;;2.25;;
38457;SDS011;24239;48.058;10.486;2024-03-23T17:05:53;3.13;;;2.03;;
38457;SDS011;24239;48.058;10.486;2024-03-23T17:08:39;3.67;;;1.70;;
38457;SDS011;24239;48.058;10.486;2024-03-23T17:11:25;2.17;;;1.90;;
38457;SDS011;24239;48.058;10.486;2024-03-23T17:14:11;3.80;;;2.08;;
38457;SDS011;24239;48.058;10.486;2024-03-23T17:16:58;5.55;;;2.35;;
38457;SDS011;24239;48.058;10.486;2024-03-23T17:19:43;3.88;;;2.10;;
38457;SDS011;24239;48.058;10.486;2024-03-23T17:22:29;6.35;;;2.13;;
38457;SDS011;24239;48.058;10.486;2024-03-23T17:25:15;4.68;;;2.10;;
38457;SDS011;24239;48.058;10.486;2024-03-23T17:28:01;2.72;;;2.10;;
38457;SDS011;24239;48.058;10.486;2024-03-23T17:30:47;4.30;;;2.10;;
38457;SDS011;24239;48.058;10.486;2024-03-23T17:33:32;3.33;;;2.03;;
38457;SDS011;24239;48.058;10.486;2024-03-23T17:36:18;2.42;;;2.22;;
38457;SDS011;24239;48.058;10.486;2024-03-23T17:39:12;7.82;;;2.20;;
38457;SDS011;24239;48.058;10.486;2024-03-23T17:41:57;4.82;;;2.10;;
38457;SDS011;24239;48.058;10.486;2024-03-23T17:44:43;3.05;;;2.30;;